createdAt,value
2022-09-25T00:00:56.414Z,101753.41
2022-09-25T00:03:24.495Z,101762.13
2022-09-25T00:05:53.126Z,101764.91
2022-09-25T00:08:21.905Z,101763.22
2022-09-25T00:11:03.397Z,101760.75
2022-09-25T00:13:34.929Z,101764.34
2022-09-25T00:16:03.457Z,101755.13
2022-09-25T00:18:51.964Z,101761.84
2022-09-25T00:21:23.957Z,101765.78
2022-09-25T00:23:54.069Z,101765.78
2022-09-25T00:26:21.351Z,101768.59
2022-09-25T00:28:48.125Z,101766.91
2022-09-25T00:31:24.954Z,101770.56
2022-09-25T00:34:01.810Z,101779.84
2022-09-25T00:36:29.529Z,101777.88
2022-09-25T00:39:00.283Z,101787.97
2022-09-25T00:41:28.899Z,101782.38
2022-09-25T00:44:00.521Z,101787.97
2022-09-25T00:46:38.145Z,101786.00
2022-09-25T00:49:18.905Z,101784.03
2022-09-25T00:51:55.012Z,101797.25
2022-09-25T00:54:35.636Z,101791.91
2022-09-25T00:57:13.247Z,101800.06
2022-09-25T00:59:47.543Z,101787.97
2022-09-25T01:02:25.230Z,101795.25
2022-09-25T01:04:57.058Z,101797.25
2022-09-25T01:07:33.576Z,101800.88
2022-09-25T01:10:04.224Z,101799.22
2022-09-25T01:12:32.029Z,101789.59
2022-09-25T01:15:12.889Z,101799.75
2022-09-25T01:17:58.913Z,101790.47
2022-09-25T01:20:41.713Z,101782.91
2022-09-25T01:23:27.899Z,101783.75
2022-09-25T01:26:15.720Z,101793.00
2022-09-25T01:29:02.008Z,101792.44
2022-09-25T01:32:03.350Z,101791.31
2022-09-25T01:34:49.596Z,101793.28
2022-09-25T01:37:26.875Z,101784.88
2022-09-25T01:40:15.088Z,101785.19
2022-09-25T01:42:53.475Z,101784.03
2022-09-25T01:45:25.859Z,101789.63
2022-09-25T01:47:56.540Z,101785.19
2022-09-25T01:50:31.741Z,101787.97
2022-09-25T01:53:02.913Z,101784.34
2022-09-25T01:55:29.801Z,101788.25
2022-09-25T01:58:07.278Z,101792.75
2022-09-25T02:00:48.140Z,101787.97
2022-09-25T02:03:18.767Z,101786.28
2022-09-25T02:05:56.286Z,101780.69
2022-09-25T02:08:38.130Z,101779.00
2022-09-25T02:11:06.478Z,101783.78
2022-09-25T02:13:42.531Z,101785.72
2022-09-25T02:16:19.824Z,101786.56
2022-09-25T02:19:06.440Z,101782.91
2022-09-25T02:22:19.368Z,101789.69
2022-09-25T02:25:05.442Z,101780.44
2022-09-25T02:27:33.030Z,101791.66
2022-09-25T02:30:01.950Z,101785.19
2022-09-25T02:32:33.364Z,101783.50
2022-09-25T02:35:02.605Z,101781.81
2022-09-25T02:37:30.268Z,101779.84
2022-09-25T02:40:00.982Z,101795.03
2022-09-25T02:42:48.443Z,101784.63
2022-09-25T02:45:30.775Z,101788.59
2022-09-25T02:48:12.787Z,101787.44
2022-09-25T02:51:03.692Z,101789.41
2022-09-25T02:53:37.845Z,101794.22
2022-09-25T02:56:15.532Z,101789.72
2022-09-25T02:58:51.400Z,101785.78
2022-09-25T03:01:20.429Z,101786.91
2022-09-25T03:03:49.426Z,101789.72
2022-09-25T03:06:18.703Z,101793.66
2022-09-25T03:08:49.986Z,101792.81
2022-09-25T03:11:18.905Z,101800.09
2022-09-25T03:13:47.494Z,101797.31
2022-09-25T03:16:21.612Z,101796.47
2022-09-25T03:18:51.633Z,101800.38
2022-09-25T03:21:18.352Z,101804.88
2022-09-25T03:23:46.427Z,101800.38
2022-09-25T03:26:19.918Z,101795.63
2022-09-25T03:28:48.948Z,101794.78
2022-09-25T03:31:18.357Z,101799.53
2022-09-25T03:33:46.200Z,101795.88
2022-09-25T03:36:25.696Z,101801.50
2022-09-25T03:38:54.111Z,101794.25
2022-09-25T03:41:22.585Z,101792.56
2022-09-25T03:43:53.775Z,101790.59
2022-09-25T03:46:22.483Z,101789.75
2022-09-25T03:48:49.722Z,101794.50
2022-09-25T03:51:19.152Z,101793.66
2022-09-25T03:53:47.020Z,101794.50
2022-09-25T03:56:19.115Z,101785.25
2022-09-25T03:58:49.250Z,101788.06
2022-09-25T04:01:16.483Z,101788.06
2022-09-25T04:03:48.701Z,101786.09
2022-09-25T04:06:20.301Z,101783.88
2022-09-25T04:08:49.665Z,101786.38
2022-09-25T04:11:19.546Z,101788.34
2022-09-25T04:13:47.056Z,101784.72
2022-09-25T04:16:14.443Z,101787.53
2022-09-25T04:18:43.659Z,101783.56
2022-09-25T04:21:12.639Z,101778.25
2022-09-25T04:23:40.470Z,101779.09
2022-09-25T04:26:08.353Z,101774.88
2022-09-25T04:28:36.102Z,101772.06
2022-09-25T04:31:05.888Z,101772.91
2022-09-25T04:33:49.291Z,101772.06
2022-09-25T04:36:19.326Z,101771.22
2022-09-25T04:38:48.525Z,101767.31
2022-09-25T04:41:24.214Z,101768.41
2022-09-25T04:44:14.073Z,101766.75
2022-09-25T04:46:49.269Z,101765.94
2022-09-25T04:49:16.553Z,101761.13
2022-09-25T04:51:44.704Z,101760.31
2022-09-25T04:54:13.842Z,101767.06
2022-09-25T04:56:40.825Z,101757.78
2022-09-25T04:59:11.733Z,101753.84
2022-09-25T05:01:39.961Z,101754.97
2022-09-25T05:04:08.984Z,101760.59
2022-09-25T05:06:36.002Z,101767.06
2022-09-25T05:09:03.599Z,101759.75
2022-09-25T05:11:30.385Z,101750.47
2022-09-25T05:13:58.641Z,101761.72
2022-09-25T05:16:25.523Z,101760.88
2022-09-25T05:18:53.453Z,101765.34
2022-09-25T05:21:20.360Z,101770.97
2022-09-25T05:23:47.080Z,101756.38
2022-09-25T05:26:14.245Z,101760.34
2022-09-25T05:28:41.057Z,101753.03
2022-09-25T05:31:09.387Z,101765.09
2022-09-25T05:33:36.518Z,101760.34
2022-09-25T05:36:07.222Z,101757.81
2022-09-25T05:38:34.716Z,101763.41
2022-09-25T05:41:03.745Z,101759.78
2022-09-25T05:43:30.621Z,101760.59
2022-09-25T05:45:57.718Z,101758.94
2022-09-25T05:48:24.360Z,101767.34
2022-09-25T05:50:51.924Z,101762.03
2022-09-25T05:53:18.497Z,101760.88
2022-09-25T05:55:51.166Z,101757.25
2022-09-25T05:58:17.833Z,101765.66
2022-09-25T06:00:48.466Z,101774.09
2022-09-25T06:03:15.156Z,101769.63
2022-09-25T06:05:41.949Z,101767.94
2022-09-25T06:08:09.048Z,101770.75
2022-09-25T06:10:35.934Z,101778.03
2022-09-25T06:13:05.003Z,101780.00
2022-09-25T06:15:39.558Z,101783.09
2022-09-25T06:18:06.801Z,101779.44
2022-09-25T06:20:43.372Z,101778.59
2022-09-25T06:23:10.095Z,101779.75
2022-09-25T06:25:36.677Z,101778.59
2022-09-25T06:28:04.102Z,101783.69
2022-09-25T06:30:34.509Z,101786.47
2022-09-25T06:33:02.098Z,101785.38
2022-09-25T06:35:31.839Z,101780.88
2022-09-25T06:37:59.244Z,101783.69
2022-09-25T06:40:29.292Z,101782.00
2022-09-25T06:42:59.665Z,101781.16
2022-09-25T06:45:27.226Z,101780.31
2022-09-25T06:47:58.028Z,101786.75
2022-09-25T06:50:26.103Z,101788.72
2022-09-25T06:52:52.936Z,101787.88
2022-09-25T06:55:19.527Z,101789.84
2022-09-25T06:57:46.371Z,101785.38
2022-09-25T07:00:13.238Z,101782.28
2022-09-25T07:02:58.654Z,101787.88
2022-09-25T07:05:27.924Z,101780.56
2022-09-25T07:07:55.321Z,101781.09
2022-09-25T07:10:22.701Z,101780.53
2022-09-25T07:12:51.020Z,101784.72
2022-09-25T07:15:18.840Z,101788.34
2022-09-25T07:17:45.998Z,101784.66
2022-09-25T07:20:15.372Z,101783.53
2022-09-25T07:22:42.540Z,101779.84
2022-09-25T07:25:10.053Z,101781.28
2022-09-25T07:27:37.028Z,101779.00
2022-09-25T07:30:04.461Z,101778.41
2022-09-25T07:32:31.894Z,101772.22
2022-09-25T07:34:58.961Z,101778.38
2022-09-25T07:37:25.561Z,101791.28
2022-09-25T07:39:52.227Z,101785.94
2022-09-25T07:42:18.904Z,101785.38
2022-09-25T07:44:48.388Z,101786.75
2022-09-25T07:47:17.139Z,101785.03
2022-09-25T07:49:43.737Z,101788.41
2022-09-25T07:52:10.377Z,101790.91
2022-09-25T07:54:37.907Z,101792.59
2022-09-25T07:57:04.544Z,101797.91
2022-09-25T07:59:31.124Z,101791.72
2022-09-25T08:01:58.370Z,101784.69
2022-09-25T08:04:25.029Z,101795.06
2022-09-25T08:06:51.637Z,101789.16
2022-09-25T08:09:18.895Z,101788.91
2022-09-25T08:11:45.676Z,101786.34
2022-09-25T08:14:14.550Z,101788.34
2022-09-25T08:16:41.428Z,101786.66
2022-09-25T08:19:08.044Z,101791.97
2022-09-25T08:21:35.021Z,101795.06
2022-09-25T08:24:01.883Z,101797.03
2022-09-25T08:26:29.516Z,101805.16
2022-09-25T08:28:57.014Z,101806.00
2022-09-25T08:31:23.719Z,101808.53
2022-09-25T08:33:50.512Z,101805.16
2022-09-25T08:36:17.834Z,101807.97
2022-09-25T08:38:45.481Z,101800.69
2022-09-25T08:41:29.622Z,101803.50
2022-09-25T08:43:59.415Z,101801.19
2022-09-25T08:46:50.599Z,101803.13
2022-09-25T08:49:20.381Z,101805.09
2022-09-25T08:51:49.528Z,101804.81
2022-09-25T08:54:19.801Z,101809.00
2022-09-25T08:56:49.600Z,101807.38
2022-09-25T08:59:34.798Z,101804.28
2022-09-25T09:02:13.748Z,101810.81
2022-09-25T09:04:47.443Z,101813.94
2022-09-25T09:07:26.723Z,101808.31
2022-09-25T09:10:05.176Z,101803.59
2022-09-25T09:12:45.315Z,101804.41
2022-09-25T09:15:26.181Z,101797.38
2022-09-25T09:17:58.633Z,101796.56
2022-09-25T09:20:47.641Z,101794.34
2022-09-25T09:23:30.290Z,101792.41
2022-09-25T09:26:08.585Z,101801.94
2022-09-25T09:28:55.507Z,101802.53
2022-09-25T09:31:37.196Z,101798.34
2022-09-25T09:34:52.969Z,101803.66
2022-09-25T09:37:22.986Z,101794.09
2022-09-25T09:40:07.659Z,101795.81
2022-09-25T09:42:44.377Z,101785.97
2022-09-25T09:45:21.559Z,101787.97
2022-09-25T09:47:48.169Z,101792.75
2022-09-25T09:50:20.861Z,101789.13
2022-09-25T09:52:49.395Z,101783.78
2022-09-25T09:55:22.222Z,101775.09
2022-09-25T09:58:05.191Z,101770.91
2022-09-25T10:00:32.673Z,101774.00
2022-09-25T10:03:11.098Z,101785.78
2022-09-25T10:05:47.124Z,101774.28
2022-09-25T10:08:13.996Z,101771.50
2022-09-25T10:10:57.623Z,101776.31
2022-09-25T10:13:27.325Z,101770.13
2022-09-25T10:15:57.655Z,101762.56
2022-09-25T10:18:26.391Z,101764.78
2022-09-25T10:20:53.920Z,101761.44
2022-09-25T10:23:27.541Z,101765.63
2022-09-25T10:25:56.244Z,101759.16
2022-09-25T10:28:28.010Z,101763.41
2022-09-25T10:31:00.279Z,101744.88
2022-09-25T10:33:29.322Z,101746.84
2022-09-25T10:35:56.804Z,101745.19
2022-09-25T10:39:31.077Z,101733.66
2022-09-25T10:41:49.959Z,101737.91
2022-09-25T10:44:28.658Z,101733.41
2022-09-25T10:47:34.276Z,101724.72
2022-09-25T10:50:12.237Z,101719.94
2022-09-25T10:52:53.956Z,101725.25
2022-09-25T10:55:32.027Z,101729.47
2022-09-25T10:58:03.331Z,101713.72
2022-09-25T11:00:29.993Z,101709.81
2022-09-25T11:03:02.724Z,101712.38
2022-09-25T11:06:00.593Z,101703.38
2022-09-25T11:08:50.685Z,101708.13
2022-09-25T11:11:22.081Z,101709.22
2022-09-25T11:13:55.580Z,101692.94
2022-09-25T11:16:22.579Z,101685.91
2022-09-25T11:18:50.903Z,101682.28
2022-09-25T11:21:38.810Z,101694.06
2022-09-25T11:24:17.397Z,101686.19
2022-09-25T11:26:54.652Z,101687.03
2022-09-25T11:29:38.756Z,101674.16
2022-09-25T11:32:17.566Z,101673.56
2022-09-25T11:35:04.849Z,101666.50
2022-09-25T11:37:37.912Z,101671.25
2022-09-25T11:40:29.357Z,101671.25
2022-09-25T11:42:59.947Z,101671.88
2022-09-25T11:45:47.715Z,101667.97
2022-09-25T11:48:40.219Z,101670.50
2022-09-25T11:51:13.088Z,101660.97
2022-09-25T11:53:52.656Z,101653.44
2022-09-25T11:56:19.235Z,101648.38
2022-09-25T11:59:00.947Z,101647.03
2022-09-25T12:01:56.946Z,101640.00
2022-09-25T12:04:44.811Z,101638.03
2022-09-25T12:07:29.922Z,101632.13
2022-09-25T12:10:12.404Z,101623.94
2022-09-25T12:12:39.778Z,101620.53
2022-09-25T12:15:25.584Z,101619.66
2022-09-25T12:17:54.974Z,101619.66
2022-09-25T12:20:28.067Z,101607.66
2022-09-25T12:23:05.310Z,101610.72
2022-09-25T12:25:48.284Z,101601.75
2022-09-25T12:28:21.435Z,101603.44
2022-09-25T12:31:06.753Z,101600.91
2022-09-25T12:33:48.189Z,101597.56
2022-09-25T12:36:19.388Z,101594.53
2022-09-25T12:39:01.812Z,101600.66
2022-09-25T12:41:34.728Z,101594.31
2022-09-25T12:44:27.138Z,101596.81
2022-09-25T12:47:05.578Z,101579.97
2022-09-25T12:49:37.948Z,101580.28
2022-09-25T12:52:13.124Z,101582.50
2022-09-25T12:54:47.813Z,101575.19
2022-09-25T12:57:19.147Z,101580.53
2022-09-25T12:59:58.735Z,101574.91
2022-09-25T13:02:25.362Z,101572.94
2022-09-25T13:05:02.500Z,101572.94
2022-09-25T13:07:36.975Z,101555.53
2022-09-25T13:10:18.222Z,101565.41
2022-09-25T13:12:45.709Z,101560.06
2022-09-25T13:15:12.364Z,101558.41
2022-09-25T13:17:40.118Z,101559.81
2022-09-25T13:20:25.159Z,101557.53
2022-09-25T13:22:52.897Z,101548.31
2022-09-25T13:25:20.222Z,101552.25
2022-09-25T13:27:47.380Z,101549.47
2022-09-25T13:30:25.484Z,101548.38
2022-09-25T13:33:09.756Z,101551.44
2022-09-25T13:35:36.703Z,101550.00
2022-09-25T13:38:38.085Z,101546.66
2022-09-25T13:41:10.157Z,101541.66
2022-09-25T13:43:38.549Z,101543.63
2022-09-25T13:46:18.075Z,101541.06
2022-09-25T13:48:44.755Z,101532.06
2022-09-25T13:51:18.303Z,101523.38
2022-09-25T13:53:50.822Z,101516.09
2022-09-25T13:56:21.682Z,101513.28
2022-09-25T13:59:23.599Z,101515.56
2022-09-25T14:01:50.367Z,101509.13
2022-09-25T14:04:30.944Z,101505.50
2022-09-25T14:07:05.045Z,101509.13
2022-09-25T14:09:32.364Z,101513.88
2022-09-25T14:12:05.496Z,101502.63
2022-09-25T14:14:45.650Z,101495.56
2022-09-25T14:17:16.742Z,101500.63
2022-09-25T14:19:45.011Z,101501.97
2022-09-25T14:22:19.335Z,101496.09
2022-09-25T14:24:45.938Z,101490.16
2022-09-25T14:27:26.689Z,101493.53
2022-09-25T14:30:02.113Z,101485.66
2022-09-25T14:32:55.151Z,101487.34
2022-09-25T14:35:32.489Z,101490.16
2022-09-25T14:38:15.746Z,101487.91
2022-09-25T14:41:06.199Z,101486.78
2022-09-25T14:43:40.506Z,101488.75
2022-09-25T14:46:11.939Z,101493.22
2022-09-25T14:48:45.278Z,101485.63
2022-09-25T14:51:24.690Z,101491.25
2022-09-25T14:53:58.022Z,101487.31
2022-09-25T14:56:25.736Z,101490.97
2022-09-25T14:58:57.509Z,101491.78
2022-09-25T15:01:29.506Z,101489.00
2022-09-25T15:03:58.941Z,101480.56
2022-09-25T15:06:32.987Z,101480.56
2022-09-25T15:09:02.915Z,101482.25
2022-09-25T15:11:47.573Z,101479.13
2022-09-25T15:14:19.599Z,101469.88
2022-09-25T15:17:04.752Z,101471.56
2022-09-25T15:19:33.563Z,101453.59
2022-09-25T15:22:07.645Z,101456.94
2022-09-25T15:24:35.984Z,101449.06
2022-09-25T15:27:06.993Z,101444.00
2022-09-25T15:29:35.828Z,101444.50
2022-09-25T15:32:02.748Z,101437.78
2022-09-25T15:34:30.314Z,101436.34
2022-09-25T15:37:16.084Z,101436.34
2022-09-25T15:39:43.669Z,101431.28
2022-09-25T15:42:16.596Z,101442.22
2022-09-25T15:44:43.281Z,101433.78
2022-09-25T15:47:29.184Z,101427.03
2022-09-25T15:49:56.097Z,101420.28
2022-09-25T15:52:24.319Z,101424.47
2022-09-25T15:54:51.356Z,101428.94
2022-09-25T15:57:30.626Z,101418.53
2022-09-25T16:00:16.753Z,101418.25
2022-09-25T16:03:09.161Z,101404.22
2022-09-25T16:05:36.327Z,101405.91
2022-09-25T16:08:17.251Z,101404.78
2022-09-25T16:10:50.286Z,101401.13
2022-09-25T16:13:21.488Z,101400.28
2022-09-25T16:15:54.968Z,101405.59
2022-09-25T16:18:21.795Z,101401.97
2022-09-25T16:21:06.818Z,101403.63
2022-09-25T16:23:33.880Z,101407.59
2022-09-25T16:26:01.353Z,101400.81
2022-09-25T16:28:30.017Z,101394.66
2022-09-25T16:31:04.980Z,101392.69
2022-09-25T16:33:37.839Z,101388.22
2022-09-25T16:36:14.450Z,101387.38
2022-09-25T16:38:46.263Z,101381.47
2022-09-25T16:41:14.592Z,101378.66
2022-09-25T16:43:41.381Z,101373.03
2022-09-25T16:46:15.346Z,101364.31
2022-09-25T16:48:42.247Z,101364.63
2022-09-25T16:51:21.720Z,101369.91
2022-09-25T16:53:50.479Z,101363.47
2022-09-25T16:56:20.532Z,101351.44
2022-09-25T16:58:50.248Z,101356.19
2022-09-25T17:01:17.348Z,101350.59
2022-09-25T17:03:51.170Z,101349.44
2022-09-25T17:06:35.745Z,101344.66
2022-09-25T17:09:02.823Z,101335.94
2022-09-25T17:11:29.492Z,101328.88
2022-09-25T17:13:56.506Z,101333.59
2022-09-25T17:16:23.133Z,101325.72
2022-09-25T17:18:49.905Z,101330.72
2022-09-25T17:21:16.863Z,101327.00
2022-09-25T17:23:44.366Z,101321.59
2022-09-25T17:26:18.684Z,101324.34
2022-09-25T17:28:45.268Z,101316.97
2022-09-25T17:31:13.912Z,101316.91
2022-09-25T17:33:40.607Z,101317.97
2022-09-25T17:36:10.270Z,101310.63
2022-09-25T17:38:36.863Z,101312.56
2022-09-25T17:41:07.640Z,101315.59
2022-09-25T17:43:34.592Z,101319.47
2022-09-25T17:46:16.407Z,101309.00
2022-09-25T17:49:03.380Z,101307.53
2022-09-25T17:51:48.527Z,101302.97
2022-09-25T17:54:40.662Z,101289.13
2022-09-25T17:57:21.754Z,101280.31
2022-09-25T18:00:07.465Z,101273.22
2022-09-25T18:03:15.479Z,101270.66
2022-09-25T18:05:56.108Z,101254.31
2022-09-25T18:08:30.009Z,101254.84
2022-09-25T18:11:08.778Z,101246.09
2022-09-25T18:13:43.757Z,101245.78
2022-09-25T18:16:28.365Z,101239.88
2022-09-25T18:19:14.885Z,101229.97
2022-09-25T18:21:59.912Z,101244.03
2022-09-25T18:24:26.665Z,101254.13
2022-09-25T18:26:54.673Z,101245.69
2022-09-25T18:29:21.317Z,101233.63
2022-09-25T18:31:48.572Z,101248.50
2022-09-25T18:34:15.888Z,101241.22
2022-09-25T18:36:42.606Z,101229.13
2022-09-25T18:39:09.408Z,101219.84
2022-09-25T18:41:36.786Z,101215.06
2022-09-25T18:44:03.574Z,101211.41
2022-09-25T18:46:30.271Z,101208.59
2022-09-25T18:48:59.625Z,101194.25
2022-09-25T18:51:26.296Z,101190.94
2022-09-25T18:53:52.930Z,101180.47
2022-09-25T18:56:20.780Z,101180.19
2022-09-25T18:58:47.694Z,101170.91
2022-09-25T19:01:14.418Z,101170.59
2022-09-25T19:03:43.353Z,101155.72
2022-09-25T19:06:10.040Z,101154.03
2022-09-25T19:08:36.662Z,101151.22
2022-09-25T19:11:03.348Z,101150.72
2022-09-25T19:13:29.974Z,101147.91
2022-09-25T19:15:59.131Z,101143.13
2022-09-25T19:18:26.000Z,101140.59
2022-09-25T19:20:54.646Z,101138.31
2022-09-25T19:23:22.431Z,101136.66
2022-09-25T19:25:55.183Z,101136.66
2022-09-25T19:28:23.925Z,101130.19
2022-09-25T19:31:00.372Z,101145.41
2022-09-25T19:33:29.336Z,101142.59
2022-09-25T19:35:56.835Z,101140.41
2022-09-25T19:38:23.426Z,101141.75
2022-09-25T19:40:50.076Z,101141.75
2022-09-25T19:43:16.755Z,101158.91
2022-09-25T19:45:50.426Z,101137.91
2022-09-25T19:48:17.182Z,101142.69
2022-09-25T19:50:50.112Z,101137.91
2022-09-25T19:53:19.035Z,101126.94
2022-09-25T19:55:52.433Z,101129.25
2022-09-25T19:58:23.112Z,101125.59
2022-09-25T20:00:51.012Z,101122.25
2022-09-25T20:03:18.186Z,101116.63
2022-09-25T20:05:44.812Z,101112.47
2022-09-25T20:08:11.417Z,101115.59
2022-09-25T20:10:47.056Z,101116.72
2022-09-25T20:13:13.802Z,101113.41
2022-09-25T20:15:41.690Z,101120.16
2022-09-25T20:18:08.369Z,101132.56
2022-09-25T20:20:36.049Z,101122.47
2022-09-25T20:23:02.698Z,101121.09
2022-09-25T20:25:29.323Z,101117.47
2022-09-25T20:27:56.198Z,101114.13
2022-09-25T20:30:24.541Z,101112.47
2022-09-25T20:32:51.479Z,101099.53
2022-09-25T20:35:18.727Z,101098.72
2022-09-25T20:37:46.778Z,101099.03
2022-09-25T20:40:14.890Z,101085.00
2022-09-25T20:42:42.071Z,101078.53
2022-09-25T20:45:09.818Z,101078.84
2022-09-25T20:47:45.187Z,101071.53
2022-09-25T20:50:12.808Z,101056.97
2022-09-25T20:52:40.139Z,101059.25
2022-09-25T20:55:06.968Z,101060.38
2022-09-25T20:57:33.782Z,101065.16
2022-09-25T21:00:02.222Z,101060.72
2022-09-25T21:02:45.925Z,101053.44
2022-09-25T21:05:13.670Z,101052.06
2022-09-25T21:07:41.523Z,101054.88
2022-09-25T21:10:08.571Z,101049.25
2022-09-25T21:12:35.194Z,101043.13
2022-09-25T21:15:02.040Z,101036.44
2022-09-25T21:17:28.691Z,101045.09
2022-09-25T21:19:55.276Z,101031.59
2022-09-25T21:22:21.962Z,101035.19
2022-09-25T21:24:48.560Z,101039.16
2022-09-25T21:27:15.152Z,101022.03
2022-09-25T21:29:41.789Z,101030.47
2022-09-25T21:32:08.588Z,101021.78
2022-09-25T21:34:35.338Z,101017.59
2022-09-25T21:37:01.917Z,101004.38
2022-09-25T21:39:29.038Z,100995.41
2022-09-25T21:41:55.595Z,100998.22
2022-09-25T21:44:24.914Z,100994.28
2022-09-25T21:46:51.787Z,100988.97
2022-09-25T21:49:21.197Z,100991.28
2022-09-25T21:51:48.674Z,100978.56
2022-09-25T21:54:15.991Z,100975.22
2022-09-25T21:56:44.486Z,100963.19
2022-09-25T21:59:11.316Z,100965.16
2022-09-25T22:01:40.003Z,100952.25
2022-09-25T22:04:10.980Z,100950.56
2022-09-25T22:06:39.064Z,100932.88
2022-09-25T22:09:09.631Z,100941.63
2022-09-25T22:11:37.439Z,100931.53
2022-09-25T22:14:04.980Z,100941.09
2022-09-25T22:16:32.761Z,100935.78
2022-09-25T22:19:10.937Z,100926.53
2022-09-25T22:21:38.010Z,100918.44
2022-09-25T22:24:04.837Z,100916.75
2022-09-25T22:26:34.982Z,100921.53
2022-09-25T22:29:05.960Z,100896.56
2022-09-25T22:31:33.847Z,100895.75
2022-09-25T22:34:05.036Z,100875.75
2022-09-25T22:36:32.169Z,100874.63
2022-09-25T22:38:58.816Z,100868.72
2022-09-25T22:41:25.662Z,100879.59
2022-09-25T22:43:53.292Z,100873.88
2022-09-25T22:46:22.648Z,100866.19
2022-09-25T22:48:49.726Z,100880.16
2022-09-25T22:51:20.616Z,100890.75
2022-09-25T22:53:48.286Z,100878.91
2022-09-25T22:56:14.891Z,100881.09
2022-09-25T22:58:41.991Z,100891.69
2022-09-25T23:01:10.830Z,100878.16
2022-09-25T23:03:37.534Z,100882.00
2022-09-25T23:06:04.520Z,100879.69
2022-09-25T23:08:31.222Z,100865.31
2022-09-25T23:11:07.461Z,100863.88
2022-09-25T23:13:34.717Z,100857.09
2022-09-25T23:16:06.557Z,100851.16
2022-09-25T23:18:34.259Z,100846.06
2022-09-25T23:21:00.970Z,100824.91
2022-09-25T23:23:27.756Z,100831.38
2022-09-25T23:25:54.850Z,100818.97
2022-09-25T23:28:25.670Z,100813.03
2022-09-25T23:30:55.615Z,100814.38
2022-09-25T23:33:34.503Z,100805.94
2022-09-25T23:36:09.434Z,100802.00
2022-09-25T23:38:39.701Z,100792.38
2022-09-25T23:41:13.634Z,100793.22
2022-09-25T23:43:40.312Z,100792.91
2022-09-25T23:46:11.020Z,100787.59
2022-09-25T23:48:38.069Z,100786.16
2022-09-25T23:51:13.274Z,100774.78
2022-09-25T23:53:44.746Z,100772.56
2022-09-25T23:56:13.278Z,100764.16
2022-09-25T23:58:40.433Z,100757.38
